sensor_id;sensor_type;location;lat;lon;timestamp;P1;durP1;ratioP1;P2;durP2;ratioP2
29378;SDS011;16362;47.202;15.258;2023-02-15T00:02:06;27.65;;;15.75;;
29378;SDS011;16362;47.202;15.258;2023-02-15T00:04:33;27.02;;;14.88;;
29378;SDS011;16362;47.202;15.258;2023-02-15T00:07:15;32.28;;;16.20;;
29378;SDS011;16362;47.202;15.258;2023-02-15T00:09:45;29.50;;;15.93;;
29378;SDS011;16362;47.202;15.258;2023-02-15T00:12:13;27.75;;;15.90;;
29378;SDS011;16362;47.202;15.258;2023-02-15T00:14:41;27.20;;;15.88;;
29378;SDS011;16362;47.202;15.258;2023-02-15T00:17:08;29.88;;;15.88;;
29378;SDS011;16362;47.202;15.258;2023-02-15T00:19:35;28.08;;;16.15;;
29378;SDS011;16362;47.202;15.258;2023-02-15T00:22:02;28.10;;;16.33;;
29378;SDS011;16362;47.202;15.258;2023-02-15T00:24:29;31.23;;;16.73;;
29378;SDS011;16362;47.202;15.258;2023-02-15T00:26:55;33.75;;;17.33;;
29378;SDS011;16362;47.202;15.258;2023-02-15T00:29:22;28.80;;;15.55;;
29378;SDS011;16362;47.202;15.258;2023-02-15T00:31:49;30.75;;;15.20;;
29378;SDS011;16362;47.202;15.258;2023-02-15T00:34:17;25.13;;;14.80;;
29378;SDS011;16362;47.202;15.258;2023-02-15T00:36:46;28.48;;;15.82;;
29378;SDS011;16362;47.202;15.258;2023-02-15T00:39:13;25.40;;;15.82;;
29378;SDS011;16362;47.202;15.258;2023-02-15T00:41:41;27.98;;;15.63;;
29378;SDS011;16362;47.202;15.258;2023-02-15T00:44:07;27.83;;;15.90;;
29378;SDS011;16362;47.202;15.258;2023-02-15T00:46:34;30.33;;;17.23;;
29378;SDS011;16362;47.202;15.258;2023-02-15T00:49:02;31.85;;;16.45;;
29378;SDS011;16362;47.202;15.258;2023-02-15T00:51:42;30.25;;;16.35;;
29378;SDS011;16362;47.202;15.258;2023-02-15T00:54:09;33.60;;;16.35;;
29378;SDS011;16362;47.202;15.258;2023-02-15T00:56:35;33.55;;;14.98;;
29378;SDS011;16362;47.202;15.258;2023-02-15T00:59:02;26.50;;;16.00;;
29378;SDS011;16362;47.202;15.258;2023-02-15T01:01:29;27.42;;;16.35;;
29378;SDS011;16362;47.202;15.258;2023-02-15T01:03:55;26.63;;;14.68;;
29378;SDS011;16362;47.202;15.258;2023-02-15T01:06:22;25.10;;;15.38;;
29378;SDS011;16362;47.202;15.258;2023-02-15T01:09:03;29.50;;;16.63;;
29378;SDS011;16362;47.202;15.258;2023-02-15T01:11:29;26.42;;;15.40;;
29378;SDS011;16362;47.202;15.258;2023-02-15T01:13:57;30.52;;;15.82;;
29378;SDS011;16362;47.202;15.258;2023-02-15T01:16:25;31.23;;;17.05;;
29378;SDS011;16362;47.202;15.258;2023-02-15T01:18:54;25.98;;;15.45;;
29378;SDS011;16362;47.202;15.258;2023-02-15T01:21:22;28.50;;;16.15;;
29378;SDS011;16362;47.202;15.258;2023-02-15T01:23:50;28.58;;;16.40;;
29378;SDS011;16362;47.202;15.258;2023-02-15T01:26:17;26.17;;;15.93;;
29378;SDS011;16362;47.202;15.258;2023-02-15T01:28:44;27.17;;;16.33;;
29378;SDS011;16362;47.202;15.258;2023-02-15T01:31:12;34.20;;;17.40;;
29378;SDS011;16362;47.202;15.258;2023-02-15T01:33:42;27.08;;;15.32;;
29378;SDS011;16362;47.202;15.258;2023-02-15T01:36:09;28.73;;;15.70;;
29378;SDS011;16362;47.202;15.258;2023-02-15T01:38:36;28.75;;;16.17;;
29378;SDS011;16362;47.202;15.258;2023-02-15T01:41:03;30.08;;;16.52;;
29378;SDS011;16362;47.202;15.258;2023-02-15T01:46:20;35.72;;;18.63;;
29378;SDS011;16362;47.202;15.258;2023-02-15T01:49:11;33.13;;;18.73;;
29378;SDS011;16362;47.202;15.258;2023-02-15T01:51:44;38.00;;;17.65;;
29378;SDS011;16362;47.202;15.258;2023-02-15T01:56:47;32.70;;;18.00;;
29378;SDS011;16362;47.202;15.258;2023-02-15T02:02:55;34.20;;;18.23;;
29378;SDS011;16362;47.202;15.258;2023-02-15T02:05:23;34.30;;;17.65;;
29378;SDS011;16362;47.202;15.258;2023-02-15T02:07:51;32.05;;;17.75;;
29378;SDS011;16362;47.202;15.258;2023-02-15T02:10:21;41.25;;;19.50;;
29378;SDS011;16362;47.202;15.258;2023-02-15T02:12:50;30.42;;;17.65;;
29378;SDS011;16362;47.202;15.258;2023-02-15T02:15:21;35.42;;;17.80;;
29378;SDS011;16362;47.202;15.258;2023-02-15T02:18:02;35.50;;;18.45;;
29378;SDS011;16362;47.202;15.258;2023-02-15T02:23:31;38.97;;;19.58;;
29378;SDS011;16362;47.202;15.258;2023-02-15T02:40:12;46.10;;;21.23;;
29378;SDS011;16362;47.202;15.258;2023-02-15T02:43:21;38.97;;;19.77;;
29378;SDS011;16362;47.202;15.258;2023-02-15T02:45:58;44.05;;;21.08;;
29378;SDS011;16362;47.202;15.258;2023-02-15T02:48:32;44.75;;;20.20;;
29378;SDS011;16362;47.202;15.258;2023-02-15T02:50:59;43.97;;;21.38;;
29378;SDS011;16362;47.202;15.258;2023-02-15T02:53:26;41.25;;;20.15;;
29378;SDS011;16362;47.202;15.258;2023-02-15T02:56:02;46.08;;;21.75;;
29378;SDS011;16362;47.202;15.258;2023-02-15T02:58:36;45.80;;;21.10;;
29378;SDS011;16362;47.202;15.258;2023-02-15T03:01:24;45.85;;;21.05;;
29378;SDS011;16362;47.202;15.258;2023-02-15T03:04:04;42.88;;;19.38;;
29378;SDS011;16362;47.202;15.258;2023-02-15T03:09:29;48.65;;;21.30;;
29378;SDS011;16362;47.202;15.258;2023-02-15T03:12:19;47.30;;;21.63;;
29378;SDS011;16362;47.202;15.258;2023-02-15T03:14:49;37.83;;;19.55;;
29378;SDS011;16362;47.202;15.258;2023-02-15T03:17:20;44.08;;;19.80;;
29378;SDS011;16362;47.202;15.258;2023-02-15T03:19:49;38.78;;;19.02;;
29378;SDS011;16362;47.202;15.258;2023-02-15T03:22:54;42.80;;;20.38;;
29378;SDS011;16362;47.202;15.258;2023-02-15T03:25:18;38.28;;;19.35;;
29378;SDS011;16362;47.202;15.258;2023-02-15T03:27:49;39.78;;;19.85;;
29378;SDS011;16362;47.202;15.258;2023-02-15T03:30:22;41.25;;;19.40;;
29378;SDS011;16362;47.202;15.258;2023-02-15T03:32:49;39.25;;;20.05;;
29378;SDS011;16362;47.202;15.258;2023-02-15T03:35:19;41.78;;;20.20;;
29378;SDS011;16362;47.202;15.258;2023-02-15T03:38:08;37.33;;;20.17;;
29378;SDS011;16362;47.202;15.258;2023-02-15T03:40:43;50.83;;;22.33;;
29378;SDS011;16362;47.202;15.258;2023-02-15T03:43:37;42.25;;;20.98;;
29378;SDS011;16362;47.202;15.258;2023-02-15T03:46:17;46.60;;;21.10;;
29378;SDS011;16362;47.202;15.258;2023-02-15T03:48:48;39.10;;;20.75;;
29378;SDS011;16362;47.202;15.258;2023-02-15T03:51:19;41.63;;;21.10;;
29378;SDS011;16362;47.202;15.258;2023-02-15T03:56:33;39.50;;;19.80;;
29378;SDS011;16362;47.202;15.258;2023-02-15T03:59:02;47.95;;;20.85;;
29378;SDS011;16362;47.202;15.258;2023-02-15T04:01:54;43.28;;;21.10;;
29378;SDS011;16362;47.202;15.258;2023-02-15T04:07:07;46.35;;;20.50;;
29378;SDS011;16362;47.202;15.258;2023-02-15T04:09:35;41.47;;;20.02;;
29378;SDS011;16362;47.202;15.258;2023-02-15T04:12:21;41.15;;;20.23;;
29378;SDS011;16362;47.202;15.258;2023-02-15T04:14:47;35.22;;;18.88;;
29378;SDS011;16362;47.202;15.258;2023-02-15T04:17:33;40.65;;;19.33;;
29378;SDS011;16362;47.202;15.258;2023-02-15T04:21:06;46.78;;;21.10;;
29378;SDS011;16362;47.202;15.258;2023-02-15T04:26:37;29.88;;;15.00;;
29378;SDS011;16362;47.202;15.258;2023-02-15T04:29:03;47.65;;;22.05;;
29378;SDS011;16362;47.202;15.258;2023-02-15T04:31:30;43.08;;;20.48;;
29378;SDS011;16362;47.202;15.258;2023-02-15T04:33:57;43.70;;;20.80;;
29378;SDS011;16362;47.202;15.258;2023-02-15T04:36:23;42.03;;;20.05;;
29378;SDS011;16362;47.202;15.258;2023-02-15T04:38:50;43.83;;;21.58;;
29378;SDS011;16362;47.202;15.258;2023-02-15T04:41:17;44.22;;;20.83;;
29378;SDS011;16362;47.202;15.258;2023-02-15T04:43:55;41.53;;;19.83;;
29378;SDS011;16362;47.202;15.258;2023-02-15T04:46:22;41.50;;;19.65;;
29378;SDS011;16362;47.202;15.258;2023-02-15T04:48:49;46.35;;;21.33;;
29378;SDS011;16362;47.202;15.258;2023-02-15T04:51:16;42.75;;;20.95;;
29378;SDS011;16362;47.202;15.258;2023-02-15T04:53:42;45.83;;;21.40;;
29378;SDS011;16362;47.202;15.258;2023-02-15T04:56:09;43.78;;;21.92;;
29378;SDS011;16362;47.202;15.258;2023-02-15T04:58:36;45.40;;;20.85;;
29378;SDS011;16362;47.202;15.258;2023-02-15T05:01:05;45.17;;;20.95;;
29378;SDS011;16362;47.202;15.258;2023-02-15T05:03:32;40.38;;;20.38;;
29378;SDS011;16362;47.202;15.258;2023-02-15T05:05:59;42.58;;;20.10;;
29378;SDS011;16362;47.202;15.258;2023-02-15T05:08:26;41.03;;;20.27;;
29378;SDS011;16362;47.202;15.258;2023-02-15T05:10:53;45.45;;;21.73;;
29378;SDS011;16362;47.202;15.258;2023-02-15T05:13:19;39.00;;;18.90;;
29378;SDS011;16362;47.202;15.258;2023-02-15T05:15:50;33.25;;;18.63;;
29378;SDS011;16362;47.202;15.258;2023-02-15T05:18:18;38.25;;;19.15;;
29378;SDS011;16362;47.202;15.258;2023-02-15T05:20:56;35.03;;;18.25;;
29378;SDS011;16362;47.202;15.258;2023-02-15T05:23:23;33.80;;;17.08;;
29378;SDS011;16362;47.202;15.258;2023-02-15T05:25:50;29.52;;;16.05;;
29378;SDS011;16362;47.202;15.258;2023-02-15T05:28:36;30.48;;;16.20;;
29378;SDS011;16362;47.202;15.258;2023-02-15T05:31:10;31.42;;;15.98;;
29378;SDS011;16362;47.202;15.258;2023-02-15T05:33:39;30.83;;;15.30;;
29378;SDS011;16362;47.202;15.258;2023-02-15T05:36:06;29.75;;;15.57;;
29378;SDS011;16362;47.202;15.258;2023-02-15T05:38:34;29.13;;;14.45;;
29378;SDS011;16362;47.202;15.258;2023-02-15T05:41:05;27.35;;;14.25;;
29378;SDS011;16362;47.202;15.258;2023-02-15T05:43:34;29.25;;;14.88;;
29378;SDS011;16362;47.202;15.258;2023-02-15T05:46:01;20.95;;;13.32;;
29378;SDS011;16362;47.202;15.258;2023-02-15T05:48:29;27.15;;;14.90;;
29378;SDS011;16362;47.202;15.258;2023-02-15T05:51:00;25.13;;;14.07;;
29378;SDS011;16362;47.202;15.258;2023-02-15T05:53:27;28.42;;;13.38;;
29378;SDS011;16362;47.202;15.258;2023-02-15T05:55:55;24.77;;;14.13;;
29378;SDS011;16362;47.202;15.258;2023-02-15T05:58:39;25.95;;;13.60;;
29378;SDS011;16362;47.202;15.258;2023-02-15T06:01:14;20.38;;;12.55;;
29378;SDS011;16362;47.202;15.258;2023-02-15T06:03:43;25.48;;;13.75;;
29378;SDS011;16362;47.202;15.258;2023-02-15T06:06:11;22.70;;;13.25;;
29378;SDS011;16362;47.202;15.258;2023-02-15T06:08:38;22.80;;;13.15;;
29378;SDS011;16362;47.202;15.258;2023-02-15T06:11:05;23.85;;;13.45;;
29378;SDS011;16362;47.202;15.258;2023-02-15T06:13:31;22.40;;;12.88;;
29378;SDS011;16362;47.202;15.258;2023-02-15T06:16:03;22.60;;;13.65;;
29378;SDS011;16362;47.202;15.258;2023-02-15T06:18:30;27.10;;;14.45;;
29378;SDS011;16362;47.202;15.258;2023-02-15T06:20:57;26.30;;;13.30;;
29378;SDS011;16362;47.202;15.258;2023-02-15T06:23:24;23.65;;;13.38;;
29378;SDS011;16362;47.202;15.258;2023-02-15T06:25:51;26.10;;;13.35;;
29378;SDS011;16362;47.202;15.258;2023-02-15T06:28:17;27.35;;;13.32;;
29378;SDS011;16362;47.202;15.258;2023-02-15T06:30:44;24.52;;;13.32;;
29378;SDS011;16362;47.202;15.258;2023-02-15T06:33:11;26.75;;;13.10;;
29378;SDS011;16362;47.202;15.258;2023-02-15T06:35:37;27.65;;;14.30;;
29378;SDS011;16362;47.202;15.258;2023-02-15T06:38:04;27.00;;;13.93;;
29378;SDS011;16362;47.202;15.258;2023-02-15T06:40:31;27.77;;;14.02;;
29378;SDS011;16362;47.202;15.258;2023-02-15T06:42:57;30.98;;;14.32;;
29378;SDS011;16362;47.202;15.258;2023-02-15T06:45:24;32.53;;;13.85;;
29378;SDS011;16362;47.202;15.258;2023-02-15T06:47:51;29.58;;;14.38;;
29378;SDS011;16362;47.202;15.258;2023-02-15T06:50:17;26.15;;;13.65;;
29378;SDS011;16362;47.202;15.258;2023-02-15T06:52:44;25.25;;;13.30;;
29378;SDS011;16362;47.202;15.258;2023-02-15T06:55:11;24.48;;;14.13;;
29378;SDS011;16362;47.202;15.258;2023-02-15T06:57:38;29.15;;;14.60;;
29378;SDS011;16362;47.202;15.258;2023-02-15T07:00:05;25.90;;;13.88;;
29378;SDS011;16362;47.202;15.258;2023-02-15T07:02:32;25.40;;;13.30;;
29378;SDS011;16362;47.202;15.258;2023-02-15T07:04:58;24.48;;;13.48;;
29378;SDS011;16362;47.202;15.258;2023-02-15T07:07:25;26.15;;;13.60;;
29378;SDS011;16362;47.202;15.258;2023-02-15T07:09:52;23.90;;;13.90;;
29378;SDS011;16362;47.202;15.258;2023-02-15T07:12:19;26.45;;;14.60;;
29378;SDS011;16362;47.202;15.258;2023-02-15T07:15:04;27.50;;;14.50;;
29378;SDS011;16362;47.202;15.258;2023-02-15T07:17:32;28.95;;;14.55;;
29378;SDS011;16362;47.202;15.258;2023-02-15T07:20:05;25.98;;;14.43;;
29378;SDS011;16362;47.202;15.258;2023-02-15T07:22:34;30.75;;;15.18;;
29378;SDS011;16362;47.202;15.258;2023-02-15T07:25:03;27.75;;;14.43;;
29378;SDS011;16362;47.202;15.258;2023-02-15T07:27:31;27.35;;;15.45;;
29378;SDS011;16362;47.202;15.258;2023-02-15T07:29:59;35.08;;;16.10;;
29378;SDS011;16362;47.202;15.258;2023-02-15T07:32:29;25.80;;;14.98;;
29378;SDS011;16362;47.202;15.258;2023-02-15T07:34:58;32.22;;;16.10;;
29378;SDS011;16362;47.202;15.258;2023-02-15T07:37:25;27.70;;;14.75;;
29378;SDS011;16362;47.202;15.258;2023-02-15T07:39:53;36.50;;;16.98;;
29378;SDS011;16362;47.202;15.258;2023-02-15T07:42:19;28.25;;;14.77;;
29378;SDS011;16362;47.202;15.258;2023-02-15T07:44:47;29.00;;;14.45;;
29378;SDS011;16362;47.202;15.258;2023-02-15T07:47:14;27.25;;;14.38;;
29378;SDS011;16362;47.202;15.258;2023-02-15T07:49:40;30.27;;;14.82;;
29378;SDS011;16362;47.202;15.258;2023-02-15T07:52:07;24.63;;;14.25;;
29378;SDS011;16362;47.202;15.258;2023-02-15T07:54:34;35.33;;;17.20;;
29378;SDS011;16362;47.202;15.258;2023-02-15T07:57:00;34.03;;;17.40;;
29378;SDS011;16362;47.202;15.258;2023-02-15T07:59:28;32.75;;;16.63;;
29378;SDS011;16362;47.202;15.258;2023-02-15T08:01:54;28.27;;;16.02;;
29378;SDS011;16362;47.202;15.258;2023-02-15T08:04:23;29.23;;;17.13;;
29378;SDS011;16362;47.202;15.258;2023-02-15T08:06:53;29.67;;;16.17;;
29378;SDS011;16362;47.202;15.258;2023-02-15T08:09:21;30.23;;;16.17;;
29378;SDS011;16362;47.202;15.258;2023-02-15T08:12:38;27.40;;;16.30;;
29378;SDS011;16362;47.202;15.258;2023-02-15T08:15:05;27.48;;;15.50;;
29378;SDS011;16362;47.202;15.258;2023-02-15T08:17:35;29.05;;;15.20;;
29378;SDS011;16362;47.202;15.258;2023-02-15T08:20:02;29.13;;;15.95;;
29378;SDS011;16362;47.202;15.258;2023-02-15T08:22:29;29.40;;;15.38;;
29378;SDS011;16362;47.202;15.258;2023-02-15T08:24:57;26.15;;;13.90;;
29378;SDS011;16362;47.202;15.258;2023-02-15T08:27:24;27.10;;;15.23;;
29378;SDS011;16362;47.202;15.258;2023-02-15T08:29:52;28.55;;;14.20;;
29378;SDS011;16362;47.202;15.258;2023-02-15T08:32:19;26.40;;;14.60;;
29378;SDS011;16362;47.202;15.258;2023-02-15T08:34:46;28.58;;;14.75;;
29378;SDS011;16362;47.202;15.258;2023-02-15T08:37:13;31.98;;;15.90;;
29378;SDS011;16362;47.202;15.258;2023-02-15T08:39:40;23.65;;;14.02;;
29378;SDS011;16362;47.202;15.258;2023-02-15T08:42:09;22.92;;;12.85;;
29378;SDS011;16362;47.202;15.258;2023-02-15T08:44:35;21.10;;;12.05;;
29378;SDS011;16362;47.202;15.258;2023-02-15T08:47:02;26.98;;;14.55;;
29378;SDS011;16362;47.202;15.258;2023-02-15T08:49:30;27.15;;;13.00;;
29378;SDS011;16362;47.202;15.258;2023-02-15T08:51:57;22.02;;;12.27;;
29378;SDS011;16362;47.202;15.258;2023-02-15T08:54:24;26.10;;;13.45;;
29378;SDS011;16362;47.202;15.258;2023-02-15T08:56:50;19.52;;;11.18;;
29378;SDS011;16362;47.202;15.258;2023-02-15T08:59:21;23.08;;;12.88;;
29378;SDS011;16362;47.202;15.258;2023-02-15T09:01:49;26.40;;;13.68;;
29378;SDS011;16362;47.202;15.258;2023-02-15T09:04:17;25.25;;;13.45;;
29378;SDS011;16362;47.202;15.258;2023-02-15T09:06:45;20.27;;;12.88;;
29378;SDS011;16362;47.202;15.258;2023-02-15T09:09:14;23.15;;;13.75;;
29378;SDS011;16362;47.202;15.258;2023-02-15T09:11:43;27.27;;;14.75;;
29378;SDS011;16362;47.202;15.258;2023-02-15T09:14:13;22.75;;;12.98;;
29378;SDS011;16362;47.202;15.258;2023-02-15T09:16:42;20.63;;;11.98;;
29378;SDS011;16362;47.202;15.258;2023-02-15T09:19:15;24.70;;;14.43;;
29378;SDS011;16362;47.202;15.258;2023-02-15T09:21:44;22.30;;;11.90;;
29378;SDS011;16362;47.202;15.258;2023-02-15T09:26:03;23.67;;;13.77;;
29378;SDS011;16362;47.202;15.258;2023-02-15T09:28:31;21.35;;;12.52;;
29378;SDS011;16362;47.202;15.258;2023-02-15T09:31:33;21.65;;;12.32;;
29378;SDS011;16362;47.202;15.258;2023-02-15T09:33:54;22.58;;;11.27;;
29378;SDS011;16362;47.202;15.258;2023-02-15T09:36:25;23.30;;;12.88;;
29378;SDS011;16362;47.202;15.258;2023-02-15T09:38:58;17.15;;;10.18;;
29378;SDS011;16362;47.202;15.258;2023-02-15T09:44:17;19.75;;;12.45;;
29378;SDS011;16362;47.202;15.258;2023-02-15T10:07:11;22.77;;;13.55;;
29378;SDS011;16362;47.202;15.258;2023-02-15T10:12:35;22.77;;;13.38;;
29378;SDS011;16362;47.202;15.258;2023-02-15T10:15:21;37.25;;;13.95;;
29378;SDS011;16362;47.202;15.258;2023-02-15T10:23:44;26.50;;;14.70;;
29378;SDS011;16362;47.202;15.258;2023-02-15T10:26:16;32.28;;;14.40;;
29378;SDS011;16362;47.202;15.258;2023-02-15T10:28:50;23.95;;;13.60;;
29378;SDS011;16362;47.202;15.258;2023-02-15T10:31:28;26.25;;;14.70;;
29378;SDS011;16362;47.202;15.258;2023-02-15T10:42:21;25.80;;;15.07;;
29378;SDS011;16362;47.202;15.258;2023-02-15T11:03:40;25.77;;;14.65;;
29378;SDS011;16362;47.202;15.258;2023-02-15T11:06:30;27.63;;;14.82;;
29378;SDS011;16362;47.202;15.258;2023-02-15T11:09:01;23.23;;;14.25;;
29378;SDS011;16362;47.202;15.258;2023-02-15T11:11:36;27.48;;;14.07;;
29378;SDS011;16362;47.202;15.258;2023-02-15T11:14:15;26.70;;;14.50;;
29378;SDS011;16362;47.202;15.258;2023-02-15T11:16:46;22.13;;;13.50;;
29378;SDS011;16362;47.202;15.258;2023-02-15T11:19:20;28.23;;;14.30;;
29378;SDS011;16362;47.202;15.258;2023-02-15T11:21:53;26.13;;;14.65;;
29378;SDS011;16362;47.202;15.258;2023-02-15T11:24:25;24.77;;;13.48;;
29378;SDS011;16362;47.202;15.258;2023-02-15T11:27:05;23.23;;;14.10;;
29378;SDS011;16362;47.202;15.258;2023-02-15T11:30:19;21.83;;;13.45;;
29378;SDS011;16362;47.202;15.258;2023-02-15T11:32:50;26.15;;;14.23;;
29378;SDS011;16362;47.202;15.258;2023-02-15T11:35:25;22.30;;;13.82;;
29378;SDS011;16362;47.202;15.258;2023-02-15T11:38:16;31.67;;;14.57;;
29378;SDS011;16362;47.202;15.258;2023-02-15T11:40:51;24.38;;;14.43;;
29378;SDS011;16362;47.202;15.258;2023-02-15T11:46:00;22.10;;;12.55;;
29378;SDS011;16362;47.202;15.258;2023-02-15T11:48:28;27.88;;;13.52;;
29378;SDS011;16362;47.202;15.258;2023-02-15T11:50:57;30.08;;;14.95;;
29378;SDS011;16362;47.202;15.258;2023-02-15T11:53:25;27.08;;;16.02;;
29378;SDS011;16362;47.202;15.258;2023-02-15T11:55:57;21.75;;;14.35;;
29378;SDS011;16362;47.202;15.258;2023-02-15T12:01:10;26.23;;;15.23;;
29378;SDS011;16362;47.202;15.258;2023-02-15T12:03:46;30.73;;;15.18;;
29378;SDS011;16362;47.202;15.258;2023-02-15T12:06:25;27.00;;;14.00;;
29378;SDS011;16362;47.202;15.258;2023-02-15T12:08:55;24.92;;;14.00;;
29378;SDS011;16362;47.202;15.258;2023-02-15T12:14:04;37.95;;;16.88;;
29378;SDS011;16362;47.202;15.258;2023-02-15T12:16:43;30.55;;;16.45;;
29378;SDS011;16362;47.202;15.258;2023-02-15T12:19:27;30.40;;;16.70;;
29378;SDS011;16362;47.202;15.258;2023-02-15T12:21:57;28.80;;;16.33;;
29378;SDS011;16362;47.202;15.258;2023-02-15T12:24:28;32.03;;;17.02;;
29378;SDS011;16362;47.202;15.258;2023-02-15T12:27:06;28.35;;;15.98;;
29378;SDS011;16362;47.202;15.258;2023-02-15T12:29:43;33.58;;;17.02;;
29378;SDS011;16362;47.202;15.258;2023-02-15T12:32:53;27.20;;;16.52;;
29378;SDS011;16362;47.202;15.258;2023-02-15T12:35:31;33.67;;;17.30;;
29378;SDS011;16362;47.202;15.258;2023-02-15T12:38:03;32.40;;;17.70;;
29378;SDS011;16362;47.202;15.258;2023-02-15T12:40:56;31.42;;;19.35;;
29378;SDS011;16362;47.202;15.258;2023-02-15T12:43:42;31.48;;;18.08;;
29378;SDS011;16362;47.202;15.258;2023-02-15T12:46:20;36.75;;;18.60;;
29378;SDS011;16362;47.202;15.258;2023-02-15T12:49:26;37.25;;;19.27;;
29378;SDS011;16362;47.202;15.258;2023-02-15T12:56:50;34.92;;;18.23;;
29378;SDS011;16362;47.202;15.258;2023-02-15T12:59:18;36.63;;;19.65;;
29378;SDS011;16362;47.202;15.258;2023-02-15T13:01:48;40.33;;;21.55;;
29378;SDS011;16362;47.202;15.258;2023-02-15T13:06:51;33.00;;;18.73;;
29378;SDS011;16362;47.202;15.258;2023-02-15T13:11:49;40.85;;;21.05;;
29378;SDS011;16362;47.202;15.258;2023-02-15T13:14:16;40.35;;;21.85;;
29378;SDS011;16362;47.202;15.258;2023-02-15T13:16:46;38.30;;;21.73;;
29378;SDS011;16362;47.202;15.258;2023-02-15T13:22:05;37.13;;;20.23;;
29378;SDS011;16362;47.202;15.258;2023-02-15T13:24:39;43.72;;;24.00;;
29378;SDS011;16362;47.202;15.258;2023-02-15T13:27:07;45.53;;;22.83;;
29378;SDS011;16362;47.202;15.258;2023-02-15T13:29:42;43.67;;;22.63;;
29378;SDS011;16362;47.202;15.258;2023-02-15T13:32:30;44.25;;;23.40;;
29378;SDS011;16362;47.202;15.258;2023-02-15T13:35:03;42.90;;;21.25;;
29378;SDS011;16362;47.202;15.258;2023-02-15T13:42:59;44.97;;;24.02;;
29378;SDS011;16362;47.202;15.258;2023-02-15T13:45:39;45.60;;;23.92;;
29378;SDS011;16362;47.202;15.258;2023-02-15T13:48:33;46.55;;;24.13;;
29378;SDS011;16362;47.202;15.258;2023-02-15T13:59:57;58.17;;;25.83;;
29378;SDS011;16362;47.202;15.258;2023-02-15T14:13:11;47.13;;;21.95;;
29378;SDS011;16362;47.202;15.258;2023-02-15T14:15:51;43.50;;;21.10;;
29378;SDS011;16362;47.202;15.258;2023-02-15T14:18:56;49.72;;;23.58;;
29378;SDS011;16362;47.202;15.258;2023-02-15T14:21:37;42.78;;;22.00;;
29378;SDS011;16362;47.202;15.258;2023-02-15T14:24:30;40.33;;;20.83;;
29378;SDS011;16362;47.202;15.258;2023-02-15T14:27:12;40.08;;;19.60;;
29378;SDS011;16362;47.202;15.258;2023-02-15T14:29:57;40.43;;;22.07;;
29378;SDS011;16362;47.202;15.258;2023-02-15T14:32:45;52.08;;;22.30;;
29378;SDS011;16362;47.202;15.258;2023-02-15T14:35:20;41.83;;;21.45;;
29378;SDS011;16362;47.202;15.258;2023-02-15T14:40:46;44.28;;;22.85;;
29378;SDS011;16362;47.202;15.258;2023-02-15T14:46:42;39.88;;;19.85;;
29378;SDS011;16362;47.202;15.258;2023-02-15T14:49:22;46.03;;;21.85;;
29378;SDS011;16362;47.202;15.258;2023-02-15T15:04:39;47.42;;;23.50;;
29378;SDS011;16362;47.202;15.258;2023-02-15T15:10:32;46.45;;;24.38;;
29378;SDS011;16362;47.202;15.258;2023-02-15T15:12:56;50.63;;;24.45;;
29378;SDS011;16362;47.202;15.258;2023-02-15T15:25:48;48.08;;;24.38;;
29378;SDS011;16362;47.202;15.258;2023-02-15T15:45:33;53.00;;;26.17;;
29378;SDS011;16362;47.202;15.258;2023-02-15T15:50:32;56.97;;;25.33;;
29378;SDS011;16362;47.202;15.258;2023-02-15T15:53:00;53.90;;;27.15;;
29378;SDS011;16362;47.202;15.258;2023-02-15T15:55:30;47.25;;;24.05;;
29378;SDS011;16362;47.202;15.258;2023-02-15T15:58:01;64.03;;;27.08;;
29378;SDS011;16362;47.202;15.258;2023-02-15T16:03:00;55.25;;;26.58;;
29378;SDS011;16362;47.202;15.258;2023-02-15T16:05:27;56.15;;;27.35;;
29378;SDS011;16362;47.202;15.258;2023-02-15T16:08:01;60.83;;;25.95;;
29378;SDS011;16362;47.202;15.258;2023-02-15T16:10:28;48.80;;;25.65;;
29378;SDS011;16362;47.202;15.258;2023-02-15T16:12:58;52.95;;;26.00;;
29378;SDS011;16362;47.202;15.258;2023-02-15T16:15:30;55.30;;;27.25;;
29378;SDS011;16362;47.202;15.258;2023-02-15T16:18:02;50.97;;;24.83;;
29378;SDS011;16362;47.202;15.258;2023-02-15T16:20:33;53.22;;;24.65;;
29378;SDS011;16362;47.202;15.258;2023-02-15T16:28:27;56.67;;;26.23;;
29378;SDS011;16362;47.202;15.258;2023-02-15T16:31:10;49.95;;;25.60;;
29378;SDS011;16362;47.202;15.258;2023-02-15T16:33:41;54.42;;;25.40;;
29378;SDS011;16362;47.202;15.258;2023-02-15T16:36:30;50.72;;;25.60;;
29378;SDS011;16362;47.202;15.258;2023-02-15T16:41:29;56.70;;;27.45;;
29378;SDS011;16362;47.202;15.258;2023-02-15T16:43:57;56.47;;;27.13;;
29378;SDS011;16362;47.202;15.258;2023-02-15T16:46:29;58.03;;;29.98;;
29378;SDS011;16362;47.202;15.258;2023-02-15T16:49:00;58.35;;;28.70;;
29378;SDS011;16362;47.202;15.258;2023-02-15T16:51:31;60.45;;;27.23;;
29378;SDS011;16362;47.202;15.258;2023-02-15T16:54:03;56.20;;;27.27;;
29378;SDS011;16362;47.202;15.258;2023-02-15T16:56:33;58.55;;;27.05;;
29378;SDS011;16362;47.202;15.258;2023-02-15T16:59:00;64.90;;;28.45;;
29378;SDS011;16362;47.202;15.258;2023-02-15T17:01:29;62.90;;;27.20;;
29378;SDS011;16362;47.202;15.258;2023-02-15T17:09:48;61.58;;;28.13;;
29378;SDS011;16362;47.202;15.258;2023-02-15T17:13:03;61.13;;;28.55;;
29378;SDS011;16362;47.202;15.258;2023-02-15T17:15:25;63.15;;;27.10;;
29378;SDS011;16362;47.202;15.258;2023-02-15T17:17:52;68.78;;;28.50;;
29378;SDS011;16362;47.202;15.258;2023-02-15T17:20:22;60.40;;;27.85;;
29378;SDS011;16362;47.202;15.258;2023-02-15T17:22:50;70.60;;;28.90;;
29378;SDS011;16362;47.202;15.258;2023-02-15T17:25:20;67.10;;;28.98;;
29378;SDS011;16362;47.202;15.258;2023-02-15T17:27:52;65.53;;;28.00;;
29378;SDS011;16362;47.202;15.258;2023-02-15T17:30:24;63.95;;;27.92;;
29378;SDS011;16362;47.202;15.258;2023-02-15T17:32:59;54.63;;;26.35;;
29378;SDS011;16362;47.202;15.258;2023-02-15T17:35:29;57.90;;;25.75;;
29378;SDS011;16362;47.202;15.258;2023-02-15T17:38:03;62.00;;;27.70;;
29378;SDS011;16362;47.202;15.258;2023-02-15T17:40:34;64.93;;;28.55;;
29378;SDS011;16362;47.202;15.258;2023-02-15T17:43:15;54.40;;;26.25;;
29378;SDS011;16362;47.202;15.258;2023-02-15T17:45:50;60.85;;;27.67;;
29378;SDS011;16362;47.202;15.258;2023-02-15T17:48:27;59.15;;;27.30;;
29378;SDS011;16362;47.202;15.258;2023-02-15T17:50:58;52.63;;;25.73;;
29378;SDS011;16362;47.202;15.258;2023-02-15T17:55:45;73.03;;;29.73;;
29378;SDS011;16362;47.202;15.258;2023-02-15T17:58:13;54.28;;;25.98;;
29378;SDS011;16362;47.202;15.258;2023-02-15T18:00:43;59.45;;;26.13;;
29378;SDS011;16362;47.202;15.258;2023-02-15T18:03:46;53.92;;;26.50;;
29378;SDS011;16362;47.202;15.258;2023-02-15T18:06:33;54.35;;;23.65;;
29378;SDS011;16362;47.202;15.258;2023-02-15T18:09:21;48.40;;;24.38;;
29378;SDS011;16362;47.202;15.258;2023-02-15T18:14:49;52.08;;;23.70;;
29378;SDS011;16362;47.202;15.258;2023-02-15T18:17:17;52.58;;;24.25;;